sensor_id;sensor_type;location;lat;lon;timestamp;temperature;humidity
50957;DHT22;55361;50.876;20.634;2024-03-23T01:00:17;29;76
50957;DHT22;55361;50.876;20.634;2024-03-23T01:10:14;28;75
50957;DHT22;55361;50.876;20.634;2024-03-23T01:20:13;28;75
50957;DHT22;55361;50.876;20.634;2024-03-23T01:30:10;28;75
50957;DHT22;55361;50.876;20.634;2024-03-23T01:40:11;28;75
50957;DHT22;55361;50.876;20.634;2024-03-23T01:50:17;28;75
50957;DHT22;55361;50.876;20.634;2024-03-23T02:00:03;28;75
50957;DHT22;55361;50.876;20.634;2024-03-23T02:10:11;28;74
50957;DHT22;55361;50.876;20.634;2024-03-23T02:20:12;28;74
50957;DHT22;55361;50.876;20.634;2024-03-23T02:30:09;28;74
50957;DHT22;55361;50.876;20.634;2024-03-23T02:40:03;28;74
50957;DHT22;55361;50.876;20.634;2024-03-23T02:50:17;28;74
50957;DHT22;55361;50.876;20.634;2024-03-23T03:00:03;28;74
50957;DHT22;55361;50.876;20.634;2024-03-23T03:10:11;28;74
50957;DHT22;55361;50.876;20.634;2024-03-23T03:20:04;28;74
50957;DHT22;55361;50.876;20.634;2024-03-23T03:30:07;28;74
50957;DHT22;55361;50.876;20.634;2024-03-23T03:40:19;28;74
50957;DHT22;55361;50.876;20.634;2024-03-23T03:50:03;28;74
50957;DHT22;55361;50.876;20.634;2024-03-23T04:00:14;28;74
50957;DHT22;55361;50.876;20.634;2024-03-23T04:10:02;28;77
50957;DHT22;55361;50.876;20.634;2024-03-23T04:20:20;28;77
50957;DHT22;55361;50.876;20.634;2024-03-23T04:30:18;28;77
50957;DHT22;55361;50.876;20.634;2024-03-23T04:40:10;28;77
50957;DHT22;55361;50.876;20.634;2024-03-23T04:50:17;28;77
50957;DHT22;55361;50.876;20.634;2024-03-23T05:00:02;28;77
50957;DHT22;55361;50.876;20.634;2024-03-23T05:10:04;28;77
50957;DHT22;55361;50.876;20.634;2024-03-23T05:20:14;28;77
50957;DHT22;55361;50.876;20.634;2024-03-23T05:30:15;28;77
50957;DHT22;55361;50.876;20.634;2024-03-23T05:40:05;28;77
50957;DHT22;55361;50.876;20.634;2024-03-23T05:50:15;28;77
50957;DHT22;55361;50.876;20.634;2024-03-23T06:00:06;28;77
50957;DHT22;55361;50.876;20.634;2024-03-23T06:10:03;28;76
50957;DHT22;55361;50.876;20.634;2024-03-23T06:20:19;28;76
50957;DHT22;55361;50.876;20.634;2024-03-23T06:30:16;28;76
50957;DHT22;55361;50.876;20.634;2024-03-23T06:40:03;28;76
50957;DHT22;55361;50.876;20.634;2024-03-23T06:50:11;28;76
50957;DHT22;55361;50.876;20.634;2024-03-23T07:00:19;28;76
50957;DHT22;55361;50.876;20.634;2024-03-23T07:10:09;28;77
50957;DHT22;55361;50.876;20.634;2024-03-23T07:20:05;28;77
50957;DHT22;55361;50.876;20.634;2024-03-23T07:30:16;28;77
50957;DHT22;55361;50.876;20.634;2024-03-23T07:40:11;28;77
50957;DHT22;55361;50.876;20.634;2024-03-23T07:50:07;28;77
50957;DHT22;55361;50.876;20.634;2024-03-23T08:00:21;28;77
50957;DHT22;55361;50.876;20.634;2024-03-23T08:10:08;28;76
50957;DHT22;55361;50.876;20.634;2024-03-23T08:20:12;28;76
50957;DHT22;55361;50.876;20.634;2024-03-23T08:30:08;28;76
50957;DHT22;55361;50.876;20.634;2024-03-23T08:40:06;28;76
50957;DHT22;55361;50.876;20.634;2024-03-23T08:50:11;28;76
50957;DHT22;55361;50.876;20.634;2024-03-23T09:00:18;28;76
50957;DHT22;55361;50.876;20.634;2024-03-23T09:10:10;28;76
50957;DHT22;55361;50.876;20.634;2024-03-23T09:20:08;28;76
50957;DHT22;55361;50.876;20.634;2024-03-23T09:30:16;28;76
50957;DHT22;55361;50.876;20.634;2024-03-23T09:40:13;28;76
50957;DHT22;55361;50.876;20.634;2024-03-23T09:50:06;28;76
50957;DHT22;55361;50.876;20.634;2024-03-23T10:00:05;28;76
50957;DHT22;55361;50.876;20.634;2024-03-23T10:10:16;28;74
50957;DHT22;55361;50.876;20.634;2024-03-23T10:20:12;28;74
50957;DHT22;55361;50.876;20.634;2024-03-23T10:30:17;28;74
50957;DHT22;55361;50.876;20.634;2024-03-23T10:50:10;28;74
50957;DHT22;55361;50.876;20.634;2024-03-23T11:00:18;28;74
50957;DHT22;55361;50.876;20.634;2024-03-23T11:20:07;28;72
50957;DHT22;55361;50.876;20.634;2024-03-23T11:30:11;28;72
50957;DHT22;55361;50.876;20.634;2024-03-23T11:40:24;28;72
50957;DHT22;55361;50.876;20.634;2024-03-23T11:50:20;28;72
50957;DHT22;55361;50.876;20.634;2024-03-23T12:00:20;28;72
50957;DHT22;55361;50.876;20.634;2024-03-23T12:10:13;28;73
50957;DHT22;55361;50.876;20.634;2024-03-23T12:20:03;28;73
50957;DHT22;55361;50.876;20.634;2024-03-23T12:30:14;28;73
50957;DHT22;55361;50.876;20.634;2024-03-23T12:40:09;28;73
50957;DHT22;55361;50.876;20.634;2024-03-23T12:50:15;28;73
50957;DHT22;55361;50.876;20.634;2024-03-23T13:00:22;28;73
50957;DHT22;55361;50.876;20.634;2024-03-23T13:10:15;28;72
50957;DHT22;55361;50.876;20.634;2024-03-23T13:20:05;28;72
50957;DHT22;55361;50.876;20.634;2024-03-23T13:30:16;28;72
50957;DHT22;55361;50.876;20.634;2024-03-23T13:40:14;28;72
50957;DHT22;55361;50.876;20.634;2024-03-23T13:50:13;28;72
50957;DHT22;55361;50.876;20.634;2024-03-23T14:00:19;28;72
50957;DHT22;55361;50.876;20.634;2024-03-23T14:10:07;28;71
50957;DHT22;55361;50.876;20.634;2024-03-23T14:20:16;28;71
50957;DHT22;55361;50.876;20.634;2024-03-23T14:30:13;28;71
50957;DHT22;55361;50.876;20.634;2024-03-23T14:40:19;28;71
50957;DHT22;55361;50.876;20.634;2024-03-23T14:50:09;28;71
50957;DHT22;55361;50.876;20.634;2024-03-23T15:00:07;28;71
50957;DHT22;55361;50.876;20.634;2024-03-23T15:20:16;28;71
50957;DHT22;55361;50.876;20.634;2024-03-23T15:30:16;28;71
50957;DHT22;55361;50.876;20.634;2024-03-23T15:50:12;28;71
50957;DHT22;55361;50.876;20.634;2024-03-23T16:00:04;28;71
50957;DHT22;55361;50.876;20.634;2024-03-23T16:10:02;28;71
50957;DHT22;55361;50.876;20.634;2024-03-23T16:20:03;28;73
50957;DHT22;55361;50.876;20.634;2024-03-23T16:30:05;28;73
50957;DHT22;55361;50.876;20.634;2024-03-23T16:40:12;28;73
50957;DHT22;55361;50.876;20.634;2024-03-23T16:50:05;28;73
50957;DHT22;55361;50.876;20.634;2024-03-23T17:00:05;28;73
50957;DHT22;55361;50.876;20.634;2024-03-23T17:10:04;28;73
50957;DHT22;55361;50.876;20.634;2024-03-23T17:20:12;28;74
50957;DHT22;55361;50.876;20.634;2024-03-23T17:30:16;28;74
50957;DHT22;55361;50.876;20.634;2024-03-23T17:40:15;28;74
50957;DHT22;55361;50.876;20.634;2024-03-23T17:50:15;28;74
50957;DHT22;55361;50.876;20.634;2024-03-23T18:00:23;28;74
50957;DHT22;55361;50.876;20.634;2024-03-23T18:10:08;28;74
50957;DHT22;55361;50.876;20.634;2024-03-23T18:20:06;28;74
50957;DHT22;55361;50.876;20.634;2024-03-23T18:30:11;28;74
50957;DHT22;55361;50.876;20.634;2024-03-23T18:40:12;28;74
50957;DHT22;55361;50.876;20.634;2024-03-23T18:50:06;28;74
50957;DHT22;55361;50.876;20.634;2024-03-23T19:00:03;28;74
50957;DHT22;55361;50.876;20.634;2024-03-23T19:10:11;28;74
50957;DHT22;55361;50.876;20.634;2024-03-23T19:20:13;28;73
50957;DHT22;55361;50.876;20.634;2024-03-23T19:30:15;28;73
50957;DHT22;55361;50.876;20.634;2024-03-23T19:40:07;28;73
50957;DHT22;55361;50.876;20.634;2024-03-23T19:50:02;28;74
50957;DHT22;55361;50.876;20.634;2024-03-23T20:00:20;28;74
50957;DHT22;55361;50.876;20.634;2024-03-23T20:10:14;28;74
50957;DHT22;55361;50.876;20.634;2024-03-23T20:20:13;28;74
50957;DHT22;55361;50.876;20.634;2024-03-23T20:30:15;28;74
50957;DHT22;55361;50.876;20.634;2024-03-23T20:40:05;28;74
50957;DHT22;55361;50.876;20.634;2024-03-23T20:50:06;28;74
50957;DHT22;55361;50.876;20.634;2024-03-23T21:00:03;28;74
50957;DHT22;55361;50.876;20.634;2024-03-23T21:10:08;28;74
50957;DHT22;55361;50.876;20.634;2024-03-23T21:20:03;28;74
50957;DHT22;55361;50.876;20.634;2024-03-23T21:30:16;28;74
50957;DHT22;55361;50.876;20.634;2024-03-23T21:40:07;28;74
50957;DHT22;55361;50.876;20.634;2024-03-23T21:50:13;28;74
50957;DHT22;55361;50.876;20.634;2024-03-23T22:00:20;28;74
50957;DHT22;55361;50.876;20.634;2024-03-23T22:10:11;28;74
50957;DHT22;55361;50.876;20.634;2024-03-23T22:20:13;28;72
50957;DHT22;55361;50.876;20.634;2024-03-23T22:30:12;28;72
50957;DHT22;55361;50.876;20.634;2024-03-23T22:40:13;28;72
50957;DHT22;55361;50.876;20.634;2024-03-23T22:50:14;28;72
50957;DHT22;55361;50.876;20.634;2024-03-23T23:00:25;28;72
50957;DHT22;55361;50.876;20.634;2024-03-23T23:10:14;28;70
50957;DHT22;55361;50.876;20.634;2024-03-23T23:20:13;28;70
50957;DHT22;55361;50.876;20.634;2024-03-23T23:30:08;28;70
50957;DHT22;55361;50.876;20.634;2024-03-23T23:40:11;28;70
50957;DHT22;55361;50.876;20.634;2024-03-23T23:50:07;28;70
